sensor_id;sensor_type;location;lat;lon;timestamp;P1;durP1;ratioP1;P2;durP2;ratioP2
43529;SDS011;55654;50.966;6.878;2023-05-27T00:00:36;21.17;;;4.70;;
43529;SDS011;55654;50.966;6.878;2023-05-27T00:03:03;15.57;;;5.10;;
43529;SDS011;55654;50.966;6.878;2023-05-27T00:05:29;19.57;;;5.13;;
43529;SDS011;55654;50.966;6.878;2023-05-27T00:07:55;19.87;;;5.10;;
43529;SDS011;55654;50.966;6.878;2023-05-27T00:10:21;17.13;;;4.27;;
43529;SDS011;55654;50.966;6.878;2023-05-27T00:12:49;24.63;;;5.47;;
43529;SDS011;55654;50.966;6.878;2023-05-27T00:15:15;15.90;;;4.50;;
43529;SDS011;55654;50.966;6.878;2023-05-27T00:17:43;21.13;;;4.80;;
43529;SDS011;55654;50.966;6.878;2023-05-27T00:20:09;19.13;;;5.47;;
43529;SDS011;55654;50.966;6.878;2023-05-27T00:22:37;16.63;;;4.67;;
43529;SDS011;55654;50.966;6.878;2023-05-27T00:25:12;19.50;;;4.43;;
43529;SDS011;55654;50.966;6.878;2023-05-27T00:27:38;23.07;;;5.97;;
43529;SDS011;55654;50.966;6.878;2023-05-27T00:30:03;20.40;;;5.10;;
43529;SDS011;55654;50.966;6.878;2023-05-27T00:32:30;15.17;;;4.60;;
43529;SDS011;55654;50.966;6.878;2023-05-27T00:35:01;16.10;;;4.87;;
43529;SDS011;55654;50.966;6.878;2023-05-27T00:37:29;18.07;;;4.53;;
43529;SDS011;55654;50.966;6.878;2023-05-27T00:39:55;17.63;;;4.90;;
43529;SDS011;55654;50.966;6.878;2023-05-27T00:42:21;17.60;;;4.80;;
43529;SDS011;55654;50.966;6.878;2023-05-27T00:44:46;14.03;;;3.90;;
43529;SDS011;55654;50.966;6.878;2023-05-27T00:47:12;17.37;;;5.00;;
43529;SDS011;55654;50.966;6.878;2023-05-27T00:49:41;24.10;;;5.63;;
43529;SDS011;55654;50.966;6.878;2023-05-27T00:52:07;16.07;;;4.87;;
43529;SDS011;55654;50.966;6.878;2023-05-27T00:54:33;15.87;;;4.43;;
43529;SDS011;55654;50.966;6.878;2023-05-27T00:56:59;22.50;;;5.63;;
43529;SDS011;55654;50.966;6.878;2023-05-27T00:59:27;21.37;;;5.37;;
43529;SDS011;55654;50.966;6.878;2023-05-27T01:01:53;19.03;;;4.77;;
43529;SDS011;55654;50.966;6.878;2023-05-27T01:04:19;17.80;;;5.30;;
43529;SDS011;55654;50.966;6.878;2023-05-27T01:07:08;19.63;;;4.53;;
43529;SDS011;55654;50.966;6.878;2023-05-27T01:09:47;22.27;;;5.07;;
43529;SDS011;55654;50.966;6.878;2023-05-27T01:17:30;17.73;;;5.20;;
43529;SDS011;55654;50.966;6.878;2023-05-27T01:19:59;16.30;;;5.43;;
43529;SDS011;55654;50.966;6.878;2023-05-27T01:22:27;14.00;;;4.47;;
43529;SDS011;55654;50.966;6.878;2023-05-27T01:24:56;19.77;;;5.03;;
43529;SDS011;55654;50.966;6.878;2023-05-27T01:27:22;16.60;;;5.00;;
43529;SDS011;55654;50.966;6.878;2023-05-27T01:29:52;16.97;;;4.97;;
43529;SDS011;55654;50.966;6.878;2023-05-27T01:32:20;20.67;;;5.47;;
43529;SDS011;55654;50.966;6.878;2023-05-27T01:34:51;19.40;;;6.00;;
43529;SDS011;55654;50.966;6.878;2023-05-27T01:37:24;12.60;;;5.07;;
43529;SDS011;55654;50.966;6.878;2023-05-27T01:40:07;19.93;;;5.40;;
43529;SDS011;55654;50.966;6.878;2023-05-27T01:42:42;22.10;;;5.80;;
43529;SDS011;55654;50.966;6.878;2023-05-27T01:45:32;13.52;;;4.10;;
43529;SDS011;55654;50.966;6.878;2023-05-27T01:48:09;23.63;;;5.57;;
43529;SDS011;55654;50.966;6.878;2023-05-27T01:50:35;17.87;;;5.37;;
43529;SDS011;55654;50.966;6.878;2023-05-27T01:53:01;21.50;;;5.07;;
43529;SDS011;55654;50.966;6.878;2023-05-27T01:55:28;17.07;;;5.10;;
43529;SDS011;55654;50.966;6.878;2023-05-27T01:57:55;21.23;;;5.47;;
43529;SDS011;55654;50.966;6.878;2023-05-27T02:00:21;19.40;;;5.73;;
43529;SDS011;55654;50.966;6.878;2023-05-27T02:02:48;21.93;;;5.40;;
43529;SDS011;55654;50.966;6.878;2023-05-27T02:05:13;27.13;;;5.13;;
43529;SDS011;55654;50.966;6.878;2023-05-27T02:07:39;17.07;;;5.10;;
43529;SDS011;55654;50.966;6.878;2023-05-27T02:10:05;21.43;;;5.50;;
43529;SDS011;55654;50.966;6.878;2023-05-27T02:12:31;21.53;;;5.97;;
43529;SDS011;55654;50.966;6.878;2023-05-27T02:14:57;15.83;;;5.17;;
43529;SDS011;55654;50.966;6.878;2023-05-27T02:17:22;19.77;;;5.13;;
43529;SDS011;55654;50.966;6.878;2023-05-27T02:19:49;16.60;;;5.00;;
43529;SDS011;55654;50.966;6.878;2023-05-27T02:22:15;20.63;;;5.47;;
43529;SDS011;55654;50.966;6.878;2023-05-27T02:24:42;14.90;;;5.83;;
43529;SDS011;55654;50.966;6.878;2023-05-27T02:27:08;15.83;;;5.13;;
43529;SDS011;55654;50.966;6.878;2023-05-27T02:29:33;14.93;;;4.70;;
43529;SDS011;55654;50.966;6.878;2023-05-27T02:31:59;24.30;;;5.80;;
43529;SDS011;55654;50.966;6.878;2023-05-27T02:34:25;16.80;;;4.87;;
43529;SDS011;55654;50.966;6.878;2023-05-27T02:36:50;11.77;;;4.70;;
43529;SDS011;55654;50.966;6.878;2023-05-27T02:39:16;17.03;;;5.03;;
43529;SDS011;55654;50.966;6.878;2023-05-27T02:41:42;16.07;;;5.10;;
43529;SDS011;55654;50.966;6.878;2023-05-27T02:44:08;21.07;;;5.23;;
43529;SDS011;55654;50.966;6.878;2023-05-27T02:46:33;15.57;;;4.30;;
43529;SDS011;55654;50.966;6.878;2023-05-27T02:48:59;18.10;;;5.90;;
43529;SDS011;55654;50.966;6.878;2023-05-27T02:51:25;14.10;;;4.40;;
43529;SDS011;55654;50.966;6.878;2023-05-27T02:53:50;20.70;;;5.57;;
43529;SDS011;55654;50.966;6.878;2023-05-27T02:56:17;22.13;;;5.23;;
43529;SDS011;55654;50.966;6.878;2023-05-27T02:58:42;18.40;;;5.90;;
43529;SDS011;55654;50.966;6.878;2023-05-27T03:01:08;13.30;;;5.07;;
43529;SDS011;55654;50.966;6.878;2023-05-27T03:03:34;20.30;;;5.20;;
43529;SDS011;55654;50.966;6.878;2023-05-27T03:06:00;13.40;;;4.80;;
43529;SDS011;55654;50.966;6.878;2023-05-27T03:08:26;28.60;;;6.13;;
43529;SDS011;55654;50.966;6.878;2023-05-27T03:10:51;17.80;;;5.27;;
43529;SDS011;55654;50.966;6.878;2023-05-27T03:13:17;15.20;;;5.50;;
43529;SDS011;55654;50.966;6.878;2023-05-27T03:15:43;16.80;;;5.13;;
43529;SDS011;55654;50.966;6.878;2023-05-27T03:18:08;16.27;;;4.83;;
43529;SDS011;55654;50.966;6.878;2023-05-27T03:20:34;15.53;;;5.00;;
43529;SDS011;55654;50.966;6.878;2023-05-27T03:23:00;16.37;;;5.07;;
43529;SDS011;55654;50.966;6.878;2023-05-27T03:25:26;17.10;;;4.77;;
43529;SDS011;55654;50.966;6.878;2023-05-27T03:27:52;16.10;;;5.80;;
43529;SDS011;55654;50.966;6.878;2023-05-27T03:30:18;23.13;;;5.20;;
43529;SDS011;55654;50.966;6.878;2023-05-27T03:32:44;21.27;;;5.60;;
43529;SDS011;55654;50.966;6.878;2023-05-27T03:35:10;26.57;;;6.80;;
43529;SDS011;55654;50.966;6.878;2023-05-27T03:37:36;19.23;;;4.90;;
43529;SDS011;55654;50.966;6.878;2023-05-27T03:40:02;13.70;;;4.87;;
43529;SDS011;55654;50.966;6.878;2023-05-27T03:42:28;22.17;;;6.37;;
43529;SDS011;55654;50.966;6.878;2023-05-27T03:44:54;17.90;;;5.27;;
43529;SDS011;55654;50.966;6.878;2023-05-27T03:47:19;23.60;;;5.47;;
43529;SDS011;55654;50.966;6.878;2023-05-27T03:49:46;19.57;;;5.27;;
43529;SDS011;55654;50.966;6.878;2023-05-27T03:52:13;26.37;;;5.50;;
43529;SDS011;55654;50.966;6.878;2023-05-27T03:54:40;21.17;;;5.27;;
43529;SDS011;55654;50.966;6.878;2023-05-27T03:57:06;17.43;;;5.03;;
43529;SDS011;55654;50.966;6.878;2023-05-27T03:59:32;19.23;;;5.53;;
43529;SDS011;55654;50.966;6.878;2023-05-27T04:01:58;16.37;;;4.57;;
43529;SDS011;55654;50.966;6.878;2023-05-27T04:04:24;20.70;;;5.70;;
43529;SDS011;55654;50.966;6.878;2023-05-27T04:06:49;20.73;;;4.90;;
43529;SDS011;55654;50.966;6.878;2023-05-27T04:09:15;14.93;;;5.70;;
43529;SDS011;55654;50.966;6.878;2023-05-27T04:11:41;16.20;;;4.97;;
43529;SDS011;55654;50.966;6.878;2023-05-27T04:14:07;14.30;;;4.93;;
43529;SDS011;55654;50.966;6.878;2023-05-27T04:16:32;23.60;;;5.47;;
43529;SDS011;55654;50.966;6.878;2023-05-27T04:18:58;20.57;;;5.30;;
43529;SDS011;55654;50.966;6.878;2023-05-27T04:21:25;22.13;;;5.23;;
43529;SDS011;55654;50.966;6.878;2023-05-27T04:23:50;20.23;;;5.83;;
43529;SDS011;55654;50.966;6.878;2023-05-27T04:26:16;20.97;;;5.50;;
43529;SDS011;55654;50.966;6.878;2023-05-27T04:28:43;22.37;;;5.03;;
43529;SDS011;55654;50.966;6.878;2023-05-27T04:31:10;17.60;;;5.47;;
43529;SDS011;55654;50.966;6.878;2023-05-27T04:33:38;20.40;;;5.23;;
43529;SDS011;55654;50.966;6.878;2023-05-27T04:36:05;15.37;;;5.53;;
43529;SDS011;55654;50.966;6.878;2023-05-27T04:38:31;17.03;;;5.10;;
43529;SDS011;55654;50.966;6.878;2023-05-27T04:40:57;18.07;;;5.33;;
43529;SDS011;55654;50.966;6.878;2023-05-27T04:43:24;19.83;;;5.43;;
43529;SDS011;55654;50.966;6.878;2023-05-27T04:45:51;15.90;;;5.20;;
43529;SDS011;55654;50.966;6.878;2023-05-27T04:48:17;19.53;;;5.63;;
43529;SDS011;55654;50.966;6.878;2023-05-27T04:50:45;18.37;;;5.57;;
43529;SDS011;55654;50.966;6.878;2023-05-27T04:53:11;17.47;;;5.60;;
43529;SDS011;55654;50.966;6.878;2023-05-27T04:55:37;15.67;;;5.00;;
43529;SDS011;55654;50.966;6.878;2023-05-27T04:58:04;15.90;;;5.73;;
43529;SDS011;55654;50.966;6.878;2023-05-27T05:00:30;22.97;;;5.50;;
43529;SDS011;55654;50.966;6.878;2023-05-27T05:03:15;23.50;;;5.50;;
43529;SDS011;55654;50.966;6.878;2023-05-27T05:06:02;19.60;;;5.77;;
43529;SDS011;55654;50.966;6.878;2023-05-27T05:08:28;20.13;;;5.30;;
43529;SDS011;55654;50.966;6.878;2023-05-27T05:10:54;24.67;;;6.07;;
43529;SDS011;55654;50.966;6.878;2023-05-27T05:13:20;18.93;;;5.47;;
43529;SDS011;55654;50.966;6.878;2023-05-27T05:15:46;18.33;;;5.63;;
43529;SDS011;55654;50.966;6.878;2023-05-27T05:18:12;15.17;;;5.30;;
43529;SDS011;55654;50.966;6.878;2023-05-27T05:20:38;14.37;;;5.60;;
43529;SDS011;55654;50.966;6.878;2023-05-27T05:23:04;24.03;;;5.60;;
43529;SDS011;55654;50.966;6.878;2023-05-27T05:25:32;25.17;;;5.67;;
43529;SDS011;55654;50.966;6.878;2023-05-27T05:28:02;23.67;;;4.93;;
43529;SDS011;55654;50.966;6.878;2023-05-27T05:30:30;31.13;;;6.83;;
43529;SDS011;55654;50.966;6.878;2023-05-27T05:32:56;24.20;;;6.07;;
43529;SDS011;55654;50.966;6.878;2023-05-27T05:35:22;28.93;;;5.83;;
43529;SDS011;55654;50.966;6.878;2023-05-27T05:37:48;23.57;;;6.80;;
43529;SDS011;55654;50.966;6.878;2023-05-27T05:40:14;19.17;;;5.87;;
43529;SDS011;55654;50.966;6.878;2023-05-27T05:42:40;19.73;;;6.60;;
43529;SDS011;55654;50.966;6.878;2023-05-27T05:45:06;24.73;;;6.47;;
43529;SDS011;55654;50.966;6.878;2023-05-27T05:47:32;26.47;;;7.13;;
43529;SDS011;55654;50.966;6.878;2023-05-27T05:49:58;21.90;;;6.50;;
43529;SDS011;55654;50.966;6.878;2023-05-27T05:52:24;18.30;;;5.67;;
43529;SDS011;55654;50.966;6.878;2023-05-27T05:54:50;18.23;;;5.63;;
43529;SDS011;55654;50.966;6.878;2023-05-27T05:57:16;17.30;;;6.53;;
43529;SDS011;55654;50.966;6.878;2023-05-27T05:59:42;22.53;;;5.87;;
43529;SDS011;55654;50.966;6.878;2023-05-27T06:02:08;26.17;;;6.80;;
43529;SDS011;55654;50.966;6.878;2023-05-27T06:04:33;18.03;;;6.67;;
43529;SDS011;55654;50.966;6.878;2023-05-27T06:06:59;14.13;;;5.17;;
43529;SDS011;55654;50.966;6.878;2023-05-27T06:09:25;17.97;;;5.90;;
43529;SDS011;55654;50.966;6.878;2023-05-27T06:11:51;17.40;;;6.00;;
43529;SDS011;55654;50.966;6.878;2023-05-27T06:14:17;19.67;;;6.23;;
43529;SDS011;55654;50.966;6.878;2023-05-27T06:16:43;21.87;;;6.33;;
43529;SDS011;55654;50.966;6.878;2023-05-27T06:19:09;21.57;;;6.33;;
43529;SDS011;55654;50.966;6.878;2023-05-27T06:21:35;25.97;;;6.57;;
43529;SDS011;55654;50.966;6.878;2023-05-27T06:24:01;20.73;;;6.23;;
43529;SDS011;55654;50.966;6.878;2023-05-27T06:26:27;24.90;;;6.40;;
43529;SDS011;55654;50.966;6.878;2023-05-27T06:28:53;24.70;;;4.93;;
43529;SDS011;55654;50.966;6.878;2023-05-27T06:31:19;21.80;;;6.33;;
43529;SDS011;55654;50.966;6.878;2023-05-27T06:33:45;20.50;;;5.37;;
43529;SDS011;55654;50.966;6.878;2023-05-27T06:36:11;15.77;;;4.97;;
43529;SDS011;55654;50.966;6.878;2023-05-27T06:38:37;18.63;;;4.97;;
43529;SDS011;55654;50.966;6.878;2023-05-27T06:41:03;19.23;;;5.10;;
43529;SDS011;55654;50.966;6.878;2023-05-27T06:43:28;15.53;;;4.93;;
43529;SDS011;55654;50.966;6.878;2023-05-27T06:45:54;20.47;;;5.23;;
43529;SDS011;55654;50.966;6.878;2023-05-27T06:48:20;14.37;;;5.10;;
43529;SDS011;55654;50.966;6.878;2023-05-27T06:50:46;18.33;;;4.57;;
43529;SDS011;55654;50.966;6.878;2023-05-27T06:53:12;17.30;;;5.60;;
43529;SDS011;55654;50.966;6.878;2023-05-27T06:55:38;20.10;;;4.70;;
43529;SDS011;55654;50.966;6.878;2023-05-27T06:58:04;19.20;;;4.80;;
43529;SDS011;55654;50.966;6.878;2023-05-27T07:00:34;17.50;;;4.83;;
43529;SDS011;55654;50.966;6.878;2023-05-27T07:03:00;20.63;;;5.37;;
43529;SDS011;55654;50.966;6.878;2023-05-27T07:05:26;17.30;;;5.30;;
43529;SDS011;55654;50.966;6.878;2023-05-27T07:07:52;20.97;;;5.30;;
43529;SDS011;55654;50.966;6.878;2023-05-27T07:10:18;24.00;;;6.57;;
43529;SDS011;55654;50.966;6.878;2023-05-27T07:12:44;19.00;;;5.60;;
43529;SDS011;55654;50.966;6.878;2023-05-27T07:15:10;19.90;;;5.10;;
43529;SDS011;55654;50.966;6.878;2023-05-27T07:17:36;23.50;;;6.33;;
43529;SDS011;55654;50.966;6.878;2023-05-27T07:20:02;20.10;;;5.50;;
43529;SDS011;55654;50.966;6.878;2023-05-27T07:22:28;20.73;;;5.60;;
43529;SDS011;55654;50.966;6.878;2023-05-27T07:24:54;20.40;;;5.13;;
43529;SDS011;55654;50.966;6.878;2023-05-27T07:27:20;20.50;;;5.50;;
43529;SDS011;55654;50.966;6.878;2023-05-27T07:29:45;19.53;;;5.33;;
43529;SDS011;55654;50.966;6.878;2023-05-27T07:32:11;16.83;;;5.20;;
43529;SDS011;55654;50.966;6.878;2023-05-27T07:34:37;18.27;;;5.53;;
43529;SDS011;55654;50.966;6.878;2023-05-27T07:37:03;17.23;;;4.90;;
43529;SDS011;55654;50.966;6.878;2023-05-27T07:39:28;17.07;;;5.73;;
43529;SDS011;55654;50.966;6.878;2023-05-27T07:41:54;13.77;;;5.13;;
43529;SDS011;55654;50.966;6.878;2023-05-27T07:44:20;21.17;;;5.73;;
43529;SDS011;55654;50.966;6.878;2023-05-27T07:46:46;20.43;;;5.67;;
43529;SDS011;55654;50.966;6.878;2023-05-27T07:49:12;20.90;;;4.73;;
43529;SDS011;55654;50.966;6.878;2023-05-27T07:51:39;19.70;;;5.50;;
43529;SDS011;55654;50.966;6.878;2023-05-27T07:54:05;18.10;;;4.73;;
43529;SDS011;55654;50.966;6.878;2023-05-27T07:56:31;20.27;;;6.43;;
43529;SDS011;55654;50.966;6.878;2023-05-27T07:58:56;17.57;;;6.10;;
43529;SDS011;55654;50.966;6.878;2023-05-27T08:01:22;15.00;;;4.90;;
43529;SDS011;55654;50.966;6.878;2023-05-27T08:03:49;20.00;;;6.43;;
43529;SDS011;55654;50.966;6.878;2023-05-27T08:06:16;17.23;;;5.13;;
43529;SDS011;55654;50.966;6.878;2023-05-27T08:08:42;13.23;;;5.67;;
43529;SDS011;55654;50.966;6.878;2023-05-27T08:11:09;21.57;;;5.73;;
43529;SDS011;55654;50.966;6.878;2023-05-27T08:13:35;13.80;;;5.20;;
43529;SDS011;55654;50.966;6.878;2023-05-27T08:16:00;20.67;;;5.70;;
43529;SDS011;55654;50.966;6.878;2023-05-27T08:18:26;17.90;;;5.53;;
43529;SDS011;55654;50.966;6.878;2023-05-27T08:20:51;18.27;;;6.00;;
43529;SDS011;55654;50.966;6.878;2023-05-27T08:23:17;16.67;;;5.50;;
43529;SDS011;55654;50.966;6.878;2023-05-27T08:25:43;18.70;;;4.93;;
43529;SDS011;55654;50.966;6.878;2023-05-27T08:28:09;14.87;;;5.10;;
43529;SDS011;55654;50.966;6.878;2023-05-27T08:30:34;18.07;;;5.50;;
43529;SDS011;55654;50.966;6.878;2023-05-27T08:33:00;9.90;;;4.20;;
43529;SDS011;55654;50.966;6.878;2023-05-27T08:35:26;21.90;;;5.57;;
43529;SDS011;55654;50.966;6.878;2023-05-27T08:37:51;17.10;;;6.43;;
43529;SDS011;55654;50.966;6.878;2023-05-27T08:40:18;15.87;;;5.20;;
43529;SDS011;55654;50.966;6.878;2023-05-27T08:42:45;16.17;;;5.43;;
43529;SDS011;55654;50.966;6.878;2023-05-27T08:45:12;15.63;;;4.80;;
43529;SDS011;55654;50.966;6.878;2023-05-27T08:47:38;16.70;;;5.30;;
43529;SDS011;55654;50.966;6.878;2023-05-27T08:50:08;16.70;;;4.93;;
43529;SDS011;55654;50.966;6.878;2023-05-27T08:52:36;22.10;;;5.77;;
43529;SDS011;55654;50.966;6.878;2023-05-27T08:55:07;19.38;;;5.63;;
43529;SDS011;55654;50.966;6.878;2023-05-27T08:57:34;23.70;;;5.28;;
43529;SDS011;55654;50.966;6.878;2023-05-27T09:00:01;15.63;;;5.20;;
43529;SDS011;55654;50.966;6.878;2023-05-27T09:02:27;17.60;;;4.93;;
43529;SDS011;55654;50.966;6.878;2023-05-27T09:04:52;18.23;;;5.70;;
43529;SDS011;55654;50.966;6.878;2023-05-27T09:07:21;18.60;;;4.95;;
43529;SDS011;55654;50.966;6.878;2023-05-27T09:09:57;17.00;;;4.53;;
43529;SDS011;55654;50.966;6.878;2023-05-27T09:16:22;11.43;;;4.53;;
43529;SDS011;55654;50.966;6.878;2023-05-27T09:18:59;13.50;;;4.65;;
43529;SDS011;55654;50.966;6.878;2023-05-27T09:24:55;18.75;;;4.90;;
43529;SDS011;55654;50.966;6.878;2023-05-27T09:34:26;16.48;;;4.65;;
43529;SDS011;55654;50.966;6.878;2023-05-27T09:37:12;19.52;;;5.22;;
43529;SDS011;55654;50.966;6.878;2023-05-27T09:39:51;14.43;;;4.40;;
43529;SDS011;55654;50.966;6.878;2023-05-27T09:42:19;13.27;;;4.60;;
43529;SDS011;55654;50.966;6.878;2023-05-27T09:44:53;15.70;;;5.15;;
43529;SDS011;55654;50.966;6.878;2023-05-27T09:47:20;14.70;;;4.65;;
43529;SDS011;55654;50.966;6.878;2023-05-27T09:49:48;16.00;;;4.10;;
43529;SDS011;55654;50.966;6.878;2023-05-27T09:52:16;14.82;;;5.05;;
43529;SDS011;55654;50.966;6.878;2023-05-27T09:54:45;13.18;;;4.10;;
43529;SDS011;55654;50.966;6.878;2023-05-27T09:57:12;17.45;;;5.25;;
43529;SDS011;55654;50.966;6.878;2023-05-27T09:59:39;12.60;;;4.15;;
43529;SDS011;55654;50.966;6.878;2023-05-27T10:02:06;10.13;;;4.10;;
43529;SDS011;55654;50.966;6.878;2023-05-27T10:04:32;17.30;;;4.78;;
43529;SDS011;55654;50.966;6.878;2023-05-27T10:07:00;16.80;;;4.22;;
43529;SDS011;55654;50.966;6.878;2023-05-27T10:09:27;12.63;;;3.95;;
43529;SDS011;55654;50.966;6.878;2023-05-27T10:11:53;11.90;;;4.65;;
43529;SDS011;55654;50.966;6.878;2023-05-27T10:14:19;18.35;;;4.82;;
43529;SDS011;55654;50.966;6.878;2023-05-27T10:16:52;15.75;;;5.22;;
43529;SDS011;55654;50.966;6.878;2023-05-27T10:19:22;12.00;;;3.90;;
43529;SDS011;55654;50.966;6.878;2023-05-27T10:21:47;15.20;;;4.28;;
43529;SDS011;55654;50.966;6.878;2023-05-27T10:24:15;12.93;;;3.40;;
43529;SDS011;55654;50.966;6.878;2023-05-27T10:26:42;15.00;;;4.20;;
43529;SDS011;55654;50.966;6.878;2023-05-27T10:29:12;19.40;;;4.93;;
43529;SDS011;55654;50.966;6.878;2023-05-27T10:31:45;17.65;;;4.32;;
43529;SDS011;55654;50.966;6.878;2023-05-27T10:34:12;11.13;;;4.15;;
43529;SDS011;55654;50.966;6.878;2023-05-27T10:36:37;17.20;;;4.10;;
43529;SDS011;55654;50.966;6.878;2023-05-27T10:39:04;9.20;;;4.15;;
43529;SDS011;55654;50.966;6.878;2023-05-27T10:41:40;12.73;;;3.75;;
43529;SDS011;55654;50.966;6.878;2023-05-27T10:44:13;13.45;;;4.18;;
43529;SDS011;55654;50.966;6.878;2023-05-27T10:46:58;11.20;;;3.70;;
43529;SDS011;55654;50.966;6.878;2023-05-27T10:49:36;12.32;;;3.95;;
43529;SDS011;55654;50.966;6.878;2023-05-27T10:54:37;10.18;;;4.03;;
43529;SDS011;55654;50.966;6.878;2023-05-27T10:57:03;13.55;;;4.28;;
43529;SDS011;55654;50.966;6.878;2023-05-27T10:59:34;13.32;;;4.70;;
43529;SDS011;55654;50.966;6.878;2023-05-27T11:02:06;14.40;;;4.50;;
43529;SDS011;55654;50.966;6.878;2023-05-27T11:04:35;14.50;;;4.53;;
43529;SDS011;55654;50.966;6.878;2023-05-27T11:07:10;10.40;;;3.75;;
43529;SDS011;55654;50.966;6.878;2023-05-27T11:09:49;12.15;;;4.15;;
43529;SDS011;55654;50.966;6.878;2023-05-27T11:12:16;15.45;;;4.13;;
43529;SDS011;55654;50.966;6.878;2023-05-27T11:14:44;7.60;;;3.55;;
43529;SDS011;55654;50.966;6.878;2023-05-27T11:17:10;11.40;;;3.63;;
43529;SDS011;55654;50.966;6.878;2023-05-27T11:19:38;14.07;;;4.00;;
43529;SDS011;55654;50.966;6.878;2023-05-27T11:22:05;11.23;;;4.22;;
43529;SDS011;55654;50.966;6.878;2023-05-27T11:24:31;8.82;;;3.88;;
43529;SDS011;55654;50.966;6.878;2023-05-27T11:26:56;10.70;;;4.90;;
43529;SDS011;55654;50.966;6.878;2023-05-27T11:29:22;17.73;;;4.55;;
43529;SDS011;55654;50.966;6.878;2023-05-27T11:31:48;7.80;;;3.60;;
43529;SDS011;55654;50.966;6.878;2023-05-27T11:34:16;16.75;;;3.83;;
43529;SDS011;55654;50.966;6.878;2023-05-27T11:36:47;8.70;;;3.30;;
43529;SDS011;55654;50.966;6.878;2023-05-27T11:39:18;10.30;;;3.97;;
43529;SDS011;55654;50.966;6.878;2023-05-27T11:41:48;12.57;;;4.00;;
43529;SDS011;55654;50.966;6.878;2023-05-27T11:44:21;11.05;;;4.10;;
43529;SDS011;55654;50.966;6.878;2023-05-27T11:46:48;10.50;;;3.58;;
43529;SDS011;55654;50.966;6.878;2023-05-27T11:49:17;9.88;;;3.05;;
43529;SDS011;55654;50.966;6.878;2023-05-27T11:51:49;10.90;;;3.55;;
43529;SDS011;55654;50.966;6.878;2023-05-27T11:54:25;10.52;;;3.70;;
43529;SDS011;55654;50.966;6.878;2023-05-27T11:56:55;9.73;;;4.15;;
43529;SDS011;55654;50.966;6.878;2023-05-27T11:59:24;11.50;;;3.97;;
43529;SDS011;55654;50.966;6.878;2023-05-27T12:01:51;12.38;;;3.67;;
43529;SDS011;55654;50.966;6.878;2023-05-27T12:04:20;12.43;;;3.42;;
43529;SDS011;55654;50.966;6.878;2023-05-27T12:06:45;11.45;;;3.67;;
43529;SDS011;55654;50.966;6.878;2023-05-27T12:09:12;9.20;;;3.50;;
43529;SDS011;55654;50.966;6.878;2023-05-27T12:11:39;10.80;;;4.15;;
43529;SDS011;55654;50.966;6.878;2023-05-27T12:14:07;11.30;;;4.30;;
43529;SDS011;55654;50.966;6.878;2023-05-27T12:16:32;8.05;;;3.17;;
43529;SDS011;55654;50.966;6.878;2023-05-27T12:18:58;10.32;;;3.45;;
43529;SDS011;55654;50.966;6.878;2023-05-27T12:21:24;12.48;;;3.28;;
43529;SDS011;55654;50.966;6.878;2023-05-27T12:23:52;11.10;;;3.33;;
43529;SDS011;55654;50.966;6.878;2023-05-27T12:26:18;11.30;;;3.53;;
43529;SDS011;55654;50.966;6.878;2023-05-27T12:28:43;8.85;;;3.42;;
43529;SDS011;55654;50.966;6.878;2023-05-27T12:31:10;12.18;;;4.30;;
43529;SDS011;55654;50.966;6.878;2023-05-27T12:33:38;11.27;;;3.53;;
43529;SDS011;55654;50.966;6.878;2023-05-27T12:36:04;10.73;;;3.70;;
43529;SDS011;55654;50.966;6.878;2023-05-27T12:38:30;11.57;;;4.03;;
43529;SDS011;55654;50.966;6.878;2023-05-27T12:40:56;10.80;;;4.00;;
43529;SDS011;55654;50.966;6.878;2023-05-27T12:43:23;9.63;;;3.15;;
43529;SDS011;55654;50.966;6.878;2023-05-27T12:45:49;8.80;;;3.47;;
43529;SDS011;55654;50.966;6.878;2023-05-27T12:48:15;9.13;;;3.60;;
43529;SDS011;55654;50.966;6.878;2023-05-27T12:50:42;10.70;;;3.63;;
43529;SDS011;55654;50.966;6.878;2023-05-27T12:53:08;11.27;;;3.60;;
43529;SDS011;55654;50.966;6.878;2023-05-27T12:55:35;11.30;;;4.68;;
43529;SDS011;55654;50.966;6.878;2023-05-27T12:58:01;8.85;;;3.97;;
43529;SDS011;55654;50.966;6.878;2023-05-27T13:00:27;9.27;;;3.35;;
43529;SDS011;55654;50.966;6.878;2023-05-27T13:02:53;7.82;;;3.25;;
43529;SDS011;55654;50.966;6.878;2023-05-27T13:05:19;10.82;;;3.38;;
43529;SDS011;55654;50.966;6.878;2023-05-27T13:07:58;6.47;;;2.65;;
43529;SDS011;55654;50.966;6.878;2023-05-27T13:10:31;7.55;;;3.45;;
43529;SDS011;55654;50.966;6.878;2023-05-27T13:13:05;10.10;;;3.72;;
43529;SDS011;55654;50.966;6.878;2023-05-27T13:15:31;9.13;;;3.47;;
43529;SDS011;55654;50.966;6.878;2023-05-27T13:17:59;9.45;;;3.17;;
43529;SDS011;55654;50.966;6.878;2023-05-27T13:20:34;10.25;;;3.20;;
43529;SDS011;55654;50.966;6.878;2023-05-27T13:22:59;11.93;;;3.40;;
43529;SDS011;55654;50.966;6.878;2023-05-27T13:25:26;10.27;;;3.50;;
43529;SDS011;55654;50.966;6.878;2023-05-27T13:27:53;12.40;;;3.63;;
43529;SDS011;55654;50.966;6.878;2023-05-27T13:30:20;12.45;;;2.97;;
43529;SDS011;55654;50.966;6.878;2023-05-27T13:32:46;8.82;;;3.35;;
43529;SDS011;55654;50.966;6.878;2023-05-27T13:35:12;8.50;;;3.30;;
43529;SDS011;55654;50.966;6.878;2023-05-27T13:37:40;7.43;;;2.80;;
43529;SDS011;55654;50.966;6.878;2023-05-27T13:40:07;8.43;;;3.35;;
43529;SDS011;55654;50.966;6.878;2023-05-27T13:42:33;9.23;;;3.17;;
43529;SDS011;55654;50.966;6.878;2023-05-27T13:44:59;9.13;;;3.53;;
43529;SDS011;55654;50.966;6.878;2023-05-27T13:47:24;10.23;;;3.75;;
43529;SDS011;55654;50.966;6.878;2023-05-27T13:49:50;9.57;;;3.55;;
43529;SDS011;55654;50.966;6.878;2023-05-27T13:52:16;9.10;;;3.22;;
43529;SDS011;55654;50.966;6.878;2023-05-27T13:54:42;9.60;;;3.35;;
43529;SDS011;55654;50.966;6.878;2023-05-27T13:57:07;6.22;;;3.03;;
43529;SDS011;55654;50.966;6.878;2023-05-27T13:59:33;7.15;;;3.33;;
43529;SDS011;55654;50.966;6.878;2023-05-27T14:01:59;7.22;;;3.47;;
43529;SDS011;55654;50.966;6.878;2023-05-27T14:04:32;11.52;;;3.53;;
43529;SDS011;55654;50.966;6.878;2023-05-27T14:07:01;8.00;;;3.28;;
43529;SDS011;55654;50.966;6.878;2023-05-27T14:09:26;5.35;;;2.95;;
43529;SDS011;55654;50.966;6.878;2023-05-27T14:11:53;9.45;;;3.83;;
43529;SDS011;55654;50.966;6.878;2023-05-27T14:14:21;7.63;;;3.30;;
43529;SDS011;55654;50.966;6.878;2023-05-27T14:16:47;9.48;;;3.53;;
43529;SDS011;55654;50.966;6.878;2023-05-27T14:19:12;11.63;;;3.65;;
43529;SDS011;55654;50.966;6.878;2023-05-27T14:21:38;8.30;;;3.38;;
43529;SDS011;55654;50.966;6.878;2023-05-27T14:24:09;8.15;;;3.78;;
43529;SDS011;55654;50.966;6.878;2023-05-27T14:26:35;8.27;;;3.97;;
43529;SDS011;55654;50.966;6.878;2023-05-27T14:29:14;8.13;;;3.85;;
43529;SDS011;55654;50.966;6.878;2023-05-27T14:31:40;8.25;;;3.92;;
43529;SDS011;55654;50.966;6.878;2023-05-27T14:34:05;6.22;;;3.20;;
43529;SDS011;55654;50.966;6.878;2023-05-27T14:36:37;7.45;;;3.53;;
43529;SDS011;55654;50.966;6.878;2023-05-27T14:39:03;5.85;;;3.30;;
43529;SDS011;55654;50.966;6.878;2023-05-27T14:41:34;8.43;;;3.40;;
43529;SDS011;55654;50.966;6.878;2023-05-27T14:43:59;9.82;;;3.63;;
43529;SDS011;55654;50.966;6.878;2023-05-27T14:46:31;7.90;;;3.20;;
43529;SDS011;55654;50.966;6.878;2023-05-27T14:49:06;7.00;;;3.17;;
43529;SDS011;55654;50.966;6.878;2023-05-27T14:51:40;6.82;;;3.50;;
43529;SDS011;55654;50.966;6.878;2023-05-27T14:54:06;8.77;;;3.67;;
43529;SDS011;55654;50.966;6.878;2023-05-27T14:56:32;7.80;;;3.22;;
43529;SDS011;55654;50.966;6.878;2023-05-27T14:59:00;7.70;;;3.10;;